createdAt,value
2022-12-23T00:01:39.333Z,12.98
2022-12-23T00:06:40.871Z,12.89
2022-12-23T00:12:02.307Z,12.83
2022-12-23T00:17:09.334Z,12.76
2022-12-23T00:22:41.737Z,12.76
2022-12-23T00:27:43.312Z,12.61
2022-12-23T00:32:44.812Z,12.65
2022-12-23T00:37:46.279Z,12.97
2022-12-23T00:42:53.452Z,12.40
2022-12-23T00:48:13.309Z,12.81
2022-12-23T00:53:14.776Z,12.95
2022-12-23T00:58:20.266Z,13.11
2022-12-23T01:03:40.271Z,12.80
2022-12-23T01:08:41.845Z,12.63
2022-12-23T01:13:43.322Z,13.02
2022-12-23T01:18:44.905Z,12.98
2022-12-23T01:23:46.468Z,12.93
2022-12-23T01:28:47.945Z,12.99
2022-12-23T01:33:49.458Z,13.15
2022-12-23T01:38:51.111Z,13.17
2022-12-23T01:43:52.583Z,13.08
2022-12-23T01:48:54.093Z,13.16
2022-12-23T01:53:58.865Z,13.29
2022-12-23T01:59:02.167Z,13.25
2022-12-23T02:04:09.155Z,13.32
2022-12-23T02:09:18.565Z,13.26
2022-12-23T02:14:57.419Z,13.30
2022-12-23T02:20:04.132Z,13.28
2022-12-23T02:25:17.416Z,13.24
2022-12-23T02:30:27.967Z,13.22
2022-12-23T02:35:40.903Z,13.28
2022-12-23T02:40:51.540Z,13.30
2022-12-23T02:45:55.732Z,13.12
2022-12-23T02:50:57.222Z,12.83
2022-12-23T02:55:59.158Z,12.84
2022-12-23T03:01:00.674Z,12.85
2022-12-23T03:06:02.655Z,12.63
2022-12-23T03:11:08.520Z,12.26
2022-12-23T03:16:25.173Z,12.54
2022-12-23T03:21:46.528Z,12.79
2022-12-23T03:27:10.330Z,12.80
2022-12-23T03:32:12.785Z,12.83
2022-12-23T03:37:14.662Z,13.07
2022-12-23T03:42:29.057Z,12.98
2022-12-23T03:47:33.179Z,12.83
2022-12-23T03:52:37.610Z,13.05
2022-12-23T03:57:41.595Z,13.08
2022-12-23T04:02:53.765Z,13.27
2022-12-23T04:08:16.270Z,13.08
2022-12-23T04:13:17.634Z,13.20
2022-12-23T04:18:19.152Z,13.34
2022-12-23T04:23:20.643Z,13.16
2022-12-23T04:28:22.126Z,13.41
2022-12-23T04:33:23.593Z,13.34
2022-12-23T04:38:25.072Z,13.26
2022-12-23T04:43:26.544Z,13.32
2022-12-23T04:48:28.003Z,13.34
2022-12-23T04:53:29.538Z,13.34
2022-12-23T04:58:31.008Z,13.22
2022-12-23T05:03:32.570Z,13.26
2022-12-23T05:08:34.233Z,13.38
2022-12-23T05:13:35.744Z,13.35
2022-12-23T05:18:37.208Z,13.43
2022-12-23T05:23:38.803Z,13.25
2022-12-23T05:28:40.369Z,13.23
2022-12-23T05:33:41.957Z,13.43
2022-12-23T05:38:43.487Z,13.16
2022-12-23T05:43:44.985Z,13.26
2022-12-23T05:48:46.514Z,13.23
2022-12-23T05:53:49.003Z,13.06
2022-12-23T05:58:50.461Z,13.22
2022-12-23T06:03:52.042Z,12.84
2022-12-23T06:08:59.398Z,12.96
2022-12-23T06:14:02.628Z,12.98
2022-12-23T06:19:04.113Z,12.90
2022-12-23T06:24:05.916Z,12.81
2022-12-23T06:29:07.407Z,12.78
2022-12-23T06:34:08.890Z,12.60
2022-12-23T06:39:10.576Z,12.58
2022-12-23T06:44:12.034Z,12.39
2022-12-23T06:49:14.067Z,12.07
2022-12-23T06:54:15.707Z,12.01
2022-12-23T06:59:17.169Z,12.21
2022-12-23T07:04:18.724Z,12.25
2022-12-23T07:09:20.196Z,12.19
2022-12-23T07:14:21.708Z,12.47
2022-12-23T07:19:23.674Z,12.58
2022-12-23T07:24:25.158Z,12.60
2022-12-23T07:29:26.631Z,12.69
2022-12-23T07:34:28.132Z,12.56
2022-12-23T07:39:29.654Z,12.71
2022-12-23T07:44:31.125Z,12.91
2022-12-23T07:49:32.595Z,12.71
2022-12-23T07:54:34.108Z,13.05
2022-12-23T07:59:35.584Z,13.09
2022-12-23T08:04:42.549Z,13.12
2022-12-23T08:09:47.191Z,13.10
2022-12-23T08:14:50.375Z,13.13
2022-12-23T08:19:51.841Z,13.22
2022-12-23T08:24:53.373Z,13.18
2022-12-23T08:29:54.860Z,13.11
2022-12-23T08:34:57.648Z,13.17
2022-12-23T08:39:59.142Z,13.04
2022-12-23T08:45:00.925Z,13.00
2022-12-23T08:50:02.697Z,12.57
2022-12-23T08:55:04.233Z,12.94
2022-12-23T09:00:06.369Z,12.85
2022-12-23T09:05:08.064Z,12.46
2022-12-23T09:10:09.673Z,12.99
2022-12-23T09:15:11.215Z,13.07
2022-12-23T09:20:12.711Z,13.19
2022-12-23T09:25:15.615Z,13.26
2022-12-23T09:30:17.215Z,13.49
2022-12-23T09:35:18.670Z,13.66
2022-12-23T09:40:20.565Z,13.79
2022-12-23T09:45:56.359Z,13.77
2022-12-23T09:50:57.964Z,13.66
2022-12-23T09:56:02.204Z,13.76
2022-12-23T10:01:18.539Z,13.83
2022-12-23T10:06:22.125Z,13.92
2022-12-23T10:11:38.026Z,14.06
2022-12-23T10:16:41.317Z,14.01
2022-12-23T10:21:48.244Z,13.80
2022-12-23T10:26:53.999Z,14.04
2022-12-23T10:32:17.816Z,13.86
2022-12-23T10:37:31.139Z,14.05
2022-12-23T10:43:11.773Z,14.01
2022-12-23T10:48:25.300Z,14.01
2022-12-23T10:53:43.635Z,13.61
2022-12-23T10:58:45.993Z,13.83
2022-12-23T11:04:14.963Z,13.85
2022-12-23T11:09:24.078Z,13.99
2022-12-23T11:14:41.437Z,14.12
2022-12-23T11:19:42.943Z,14.15
2022-12-23T11:24:44.411Z,14.27
2022-12-23T11:29:51.832Z,14.32
2022-12-23T11:34:53.875Z,14.41
2022-12-23T11:39:55.361Z,14.50
2022-12-23T11:44:58.222Z,14.38
2022-12-23T11:50:01.563Z,14.40
2022-12-23T11:55:04.033Z,14.30
2022-12-23T12:00:07.163Z,14.03
2022-12-23T12:05:37.233Z,14.01
2022-12-23T12:10:39.199Z,14.18
2022-12-23T12:15:44.753Z,14.08
2022-12-23T12:20:48.759Z,14.11
2022-12-23T12:25:52.720Z,13.91
2022-12-23T12:30:57.857Z,14.12
2022-12-23T12:36:15.872Z,14.05
2022-12-23T12:41:22.433Z,13.55
2022-12-23T12:46:39.672Z,13.60
2022-12-23T12:51:54.481Z,13.69
2022-12-23T12:56:56.564Z,13.03
2022-12-23T13:02:19.628Z,13.18
2022-12-23T13:07:53.238Z,13.22
2022-12-23T13:13:03.854Z,13.13
2022-12-23T13:18:36.505Z,13.09
2022-12-23T13:23:44.020Z,12.70
2022-12-23T13:28:59.767Z,12.22
2022-12-23T13:34:29.454Z,12.04
2022-12-23T13:39:39.833Z,11.55
2022-12-23T13:44:41.312Z,12.32
2022-12-23T13:49:55.263Z,12.49
2022-12-23T13:54:59.511Z,12.66
2022-12-23T14:00:06.175Z,12.36
2022-12-23T14:05:30.558Z,12.49
2022-12-23T14:10:32.023Z,11.63
2022-12-23T14:15:47.073Z,11.64
2022-12-23T14:20:50.855Z,11.57
2022-12-23T14:26:27.422Z,10.98
2022-12-23T14:31:40.553Z,11.25
2022-12-23T14:36:42.125Z,11.63
2022-12-23T14:41:50.856Z,11.65
2022-12-23T14:46:53.008Z,11.97
2022-12-23T14:51:54.487Z,11.92
2022-12-23T14:57:00.361Z,12.00
2022-12-23T15:02:03.239Z,11.86
2022-12-23T15:07:06.629Z,12.23
2022-12-23T15:12:13.681Z,12.02
2022-12-23T15:17:28.449Z,12.04
2022-12-23T15:22:32.931Z,11.92
2022-12-23T15:27:35.583Z,11.51
2022-12-23T15:32:37.038Z,11.86
2022-12-23T15:37:38.507Z,11.96
2022-12-23T15:42:39.979Z,11.16
2022-12-23T15:47:42.967Z,11.82
2022-12-23T15:52:45.426Z,11.76
2022-12-23T15:57:50.381Z,11.87
2022-12-23T16:03:02.344Z,11.98
2022-12-23T16:08:19.353Z,11.76
2022-12-23T16:13:25.369Z,11.47
2022-12-23T16:18:31.572Z,11.70
2022-12-23T16:23:34.709Z,11.94
2022-12-23T16:28:37.919Z,11.42
2022-12-23T16:33:43.724Z,11.35
2022-12-23T16:38:45.214Z,11.36
2022-12-23T16:43:51.904Z,11.61
2022-12-23T16:48:55.424Z,11.54
2022-12-23T16:53:57.391Z,11.14
2022-12-23T16:58:58.937Z,11.36
2022-12-23T17:04:00.503Z,11.56
2022-12-23T17:09:02.126Z,11.56
2022-12-23T17:14:07.882Z,11.41
2022-12-23T17:19:12.000Z,10.94
2022-12-23T17:24:23.744Z,11.20
2022-12-23T17:29:25.265Z,11.18
2022-12-23T17:34:26.772Z,11.18
2022-12-23T17:39:28.234Z,11.01
2022-12-23T17:44:29.842Z,10.76
2022-12-23T17:49:31.293Z,10.70
2022-12-23T17:54:32.805Z,10.69
2022-12-23T17:59:34.262Z,10.61
2022-12-23T18:04:35.724Z,10.64
2022-12-23T18:09:37.334Z,11.08
2022-12-23T18:14:38.816Z,11.08
2022-12-23T18:19:40.282Z,11.17
2022-12-23T18:24:41.897Z,10.91
2022-12-23T18:29:43.760Z,10.69
2022-12-23T18:34:45.244Z,10.73
2022-12-23T18:39:46.761Z,10.51
2022-12-23T18:44:48.458Z,10.69
2022-12-23T18:49:49.947Z,10.91
2022-12-23T18:54:53.344Z,10.99
2022-12-23T18:59:54.813Z,11.08
2022-12-23T19:04:56.307Z,11.06
2022-12-23T19:09:57.782Z,11.14
2022-12-23T19:14:59.292Z,11.01
2022-12-23T19:20:00.782Z,11.16
2022-12-23T19:25:06.760Z,11.20
2022-12-23T19:30:09.145Z,11.15
2022-12-23T19:35:13.787Z,11.08
2022-12-23T19:40:15.260Z,11.26
2022-12-23T19:45:17.117Z,11.29
2022-12-23T19:50:19.678Z,11.28
2022-12-23T19:55:21.166Z,11.43
2022-12-23T20:00:22.636Z,11.12
2022-12-23T20:05:24.154Z,11.11
2022-12-23T20:10:25.639Z,11.18
2022-12-23T20:15:27.180Z,11.24
2022-12-23T20:20:28.678Z,11.40
2022-12-23T20:25:30.180Z,11.25
2022-12-23T20:30:31.666Z,11.30
2022-12-23T20:35:33.177Z,11.07
2022-12-23T20:40:34.648Z,10.72
2022-12-23T20:45:36.122Z,10.43
2022-12-23T20:50:39.891Z,10.82
2022-12-23T20:55:41.408Z,10.85
2022-12-23T21:00:42.887Z,10.99
2022-12-23T21:05:44.379Z,11.14
2022-12-23T21:10:52.555Z,11.00
2022-12-23T21:15:54.189Z,10.19
2022-12-23T21:21:02.728Z,10.77
2022-12-23T21:26:09.266Z,10.77
2022-12-23T21:31:10.831Z,11.02
2022-12-23T21:36:19.818Z,11.04
2022-12-23T21:41:23.417Z,11.17
2022-12-23T21:46:25.076Z,10.83
2022-12-23T21:51:33.343Z,10.23
2022-12-23T21:56:38.443Z,10.58
2022-12-23T22:01:40.490Z,10.81
2022-12-23T22:06:44.245Z,10.57
2022-12-23T22:11:46.256Z,10.89
2022-12-23T22:16:47.804Z,10.83
2022-12-23T22:21:49.399Z,10.95
2022-12-23T22:26:50.887Z,10.98
2022-12-23T22:31:53.217Z,10.89
2022-12-23T22:36:54.844Z,10.96
2022-12-23T22:41:56.323Z,10.99
2022-12-23T22:46:57.779Z,11.14
2022-12-23T22:51:59.266Z,11.21
2022-12-23T22:57:00.736Z,11.16
2022-12-23T23:02:02.215Z,11.14
2022-12-23T23:07:03.739Z,11.07
2022-12-23T23:12:05.338Z,11.17
2022-12-23T23:17:06.924Z,11.25
2022-12-23T23:22:08.413Z,11.29
2022-12-23T23:27:09.933Z,11.25
2022-12-23T23:32:11.516Z,10.64
2022-12-23T23:37:14.150Z,11.05
2022-12-23T23:42:17.774Z,11.03
2022-12-23T23:47:19.291Z,10.89
2022-12-23T23:52:20.775Z,10.61
2022-12-23T23:57:22.228Z,10.85
